sensor_id;sensor_type;location;lat;lon;timestamp;temperature;humidity
21602;DHT22;10963;50.934;4.668;2023-02-15T00:01:57;5.00;99.90
21602;DHT22;10963;50.934;4.668;2023-02-15T00:04:25;5.00;99.90
21602;DHT22;10963;50.934;4.668;2023-02-15T00:07:09;5.10;99.90
21602;DHT22;10963;50.934;4.668;2023-02-15T00:09:37;5.10;99.90
21602;DHT22;10963;50.934;4.668;2023-02-15T00:12:05;5.10;99.90
21602;DHT22;10963;50.934;4.668;2023-02-15T00:14:31;5.00;99.90
21602;DHT22;10963;50.934;4.668;2023-02-15T00:16:57;4.90;99.90
21602;DHT22;10963;50.934;4.668;2023-02-15T00:19:25;4.80;99.90
21602;DHT22;10963;50.934;4.668;2023-02-15T00:21:53;4.70;99.90
21602;DHT22;10963;50.934;4.668;2023-02-15T00:24:21;4.70;99.90
21602;DHT22;10963;50.934;4.668;2023-02-15T00:26:47;4.70;99.90
21602;DHT22;10963;50.934;4.668;2023-02-15T00:29:15;4.70;99.90
21602;DHT22;10963;50.934;4.668;2023-02-15T00:31:43;4.60;99.90
21602;DHT22;10963;50.934;4.668;2023-02-15T00:34:14;4.50;99.90
21602;DHT22;10963;50.934;4.668;2023-02-15T00:36:43;4.50;99.90
21602;DHT22;10963;50.934;4.668;2023-02-15T00:39:09;4.50;99.90
21602;DHT22;10963;50.934;4.668;2023-02-15T00:41:37;4.40;99.90
21602;DHT22;10963;50.934;4.668;2023-02-15T00:44:03;4.50;99.90
21602;DHT22;10963;50.934;4.668;2023-02-15T00:46:32;4.60;99.90
21602;DHT22;10963;50.934;4.668;2023-02-15T00:48:58;4.60;99.90
21602;DHT22;10963;50.934;4.668;2023-02-15T00:51:26;4.60;99.90
21602;DHT22;10963;50.934;4.668;2023-02-15T00:53:52;4.50;99.90
21602;DHT22;10963;50.934;4.668;2023-02-15T00:56:18;4.50;99.90
21602;DHT22;10963;50.934;4.668;2023-02-15T00:58:44;4.50;99.90
21602;DHT22;10963;50.934;4.668;2023-02-15T01:01:19;4.40;99.90
21602;DHT22;10963;50.934;4.668;2023-02-15T01:03:45;4.40;99.90
21602;DHT22;10963;50.934;4.668;2023-02-15T01:06:16;4.50;99.90
21602;DHT22;10963;50.934;4.668;2023-02-15T01:08:43;4.50;99.90
21602;DHT22;10963;50.934;4.668;2023-02-15T01:11:18;4.50;99.90
21602;DHT22;10963;50.934;4.668;2023-02-15T01:13:52;4.60;99.90
21602;DHT22;10963;50.934;4.668;2023-02-15T01:16:18;4.60;99.90
21602;DHT22;10963;50.934;4.668;2023-02-15T01:18:44;4.60;99.90
21602;DHT22;10963;50.934;4.668;2023-02-15T01:21:14;4.60;99.90
21602;DHT22;10963;50.934;4.668;2023-02-15T01:23:44;4.70;99.90
21602;DHT22;10963;50.934;4.668;2023-02-15T01:26:12;4.80;99.90
21602;DHT22;10963;50.934;4.668;2023-02-15T01:28:40;4.80;99.90
21602;DHT22;10963;50.934;4.668;2023-02-15T01:31:08;4.60;99.90
21602;DHT22;10963;50.934;4.668;2023-02-15T01:33:35;4.60;99.90
21602;DHT22;10963;50.934;4.668;2023-02-15T01:36:02;4.60;99.90
21602;DHT22;10963;50.934;4.668;2023-02-15T01:38:30;4.60;99.90
21602;DHT22;10963;50.934;4.668;2023-02-15T01:40:55;4.50;99.90
21602;DHT22;10963;50.934;4.668;2023-02-15T01:43:43;4.50;99.90
21602;DHT22;10963;50.934;4.668;2023-02-15T01:46:11;4.50;99.90
21602;DHT22;10963;50.934;4.668;2023-02-15T01:48:43;4.50;99.90
21602;DHT22;10963;50.934;4.668;2023-02-15T01:51:10;4.50;99.90
21602;DHT22;10963;50.934;4.668;2023-02-15T01:53:45;4.50;99.90
21602;DHT22;10963;50.934;4.668;2023-02-15T01:56:25;4.50;99.90
21602;DHT22;10963;50.934;4.668;2023-02-15T01:58:54;4.50;99.90
21602;DHT22;10963;50.934;4.668;2023-02-15T02:01:25;4.40;99.90
21602;DHT22;10963;50.934;4.668;2023-02-15T02:06:33;4.30;99.90
21602;DHT22;10963;50.934;4.668;2023-02-15T02:09:01;4.30;99.90
21602;DHT22;10963;50.934;4.668;2023-02-15T02:11:27;4.20;99.90
21602;DHT22;10963;50.934;4.668;2023-02-15T02:13:54;4.20;99.90
21602;DHT22;10963;50.934;4.668;2023-02-15T02:16:37;4.40;99.90
21602;DHT22;10963;50.934;4.668;2023-02-15T02:25:23;4.10;99.90
21602;DHT22;10963;50.934;4.668;2023-02-15T02:47:00;3.80;99.90
21602;DHT22;10963;50.934;4.668;2023-02-15T02:49:34;3.80;99.90
21602;DHT22;10963;50.934;4.668;2023-02-15T02:55:13;3.70;99.90
21602;DHT22;10963;50.934;4.668;2023-02-15T02:58:05;3.60;99.90
21602;DHT22;10963;50.934;4.668;2023-02-15T03:00:40;3.60;99.90
21602;DHT22;10963;50.934;4.668;2023-02-15T03:03:16;3.60;99.90
21602;DHT22;10963;50.934;4.668;2023-02-15T03:05:47;3.70;99.90
21602;DHT22;10963;50.934;4.668;2023-02-15T03:08:23;3.70;99.90
21602;DHT22;10963;50.934;4.668;2023-02-15T03:10:55;3.70;99.90
21602;DHT22;10963;50.934;4.668;2023-02-15T03:13:24;3.60;99.90
21602;DHT22;10963;50.934;4.668;2023-02-15T03:15:52;3.70;99.90
21602;DHT22;10963;50.934;4.668;2023-02-15T03:18:48;3.70;99.90
21602;DHT22;10963;50.934;4.668;2023-02-15T03:21:21;3.60;99.90
21602;DHT22;10963;50.934;4.668;2023-02-15T03:23:57;3.60;99.90
21602;DHT22;10963;50.934;4.668;2023-02-15T03:26:30;3.60;99.90
21602;DHT22;10963;50.934;4.668;2023-02-15T03:28:59;3.60;99.90
21602;DHT22;10963;50.934;4.668;2023-02-15T03:31:37;3.60;99.90
21602;DHT22;10963;50.934;4.668;2023-02-15T03:34:06;3.60;99.90
21602;DHT22;10963;50.934;4.668;2023-02-15T03:44:30;3.50;99.90
21602;DHT22;10963;50.934;4.668;2023-02-15T03:51:56;3.40;99.90
21602;DHT22;10963;50.934;4.668;2023-02-15T03:54:29;3.40;99.90
21602;DHT22;10963;50.934;4.668;2023-02-15T03:57:34;3.40;99.90
21602;DHT22;10963;50.934;4.668;2023-02-15T04:00:23;3.40;99.90
21602;DHT22;10963;50.934;4.668;2023-02-15T04:03:22;3.30;99.90
21602;DHT22;10963;50.934;4.668;2023-02-15T04:05:49;3.30;99.90
21602;DHT22;10963;50.934;4.668;2023-02-15T04:08:14;3.20;99.90
21602;DHT22;10963;50.934;4.668;2023-02-15T04:10:43;3.20;99.90
21602;DHT22;10963;50.934;4.668;2023-02-15T04:13:22;3.20;99.90
21602;DHT22;10963;50.934;4.668;2023-02-15T04:15:48;3.20;99.90
21602;DHT22;10963;50.934;4.668;2023-02-15T04:18:37;3.30;99.90
21602;DHT22;10963;50.934;4.668;2023-02-15T04:21:23;3.30;99.90
21602;DHT22;10963;50.934;4.668;2023-02-15T04:24:08;3.30;99.90
21602;DHT22;10963;50.934;4.668;2023-02-15T04:26:53;3.30;99.90
21602;DHT22;10963;50.934;4.668;2023-02-15T04:29:22;3.30;99.90
21602;DHT22;10963;50.934;4.668;2023-02-15T04:31:54;3.30;99.90
21602;DHT22;10963;50.934;4.668;2023-02-15T04:34:20;3.30;99.90
21602;DHT22;10963;50.934;4.668;2023-02-15T04:36:46;3.30;99.90
21602;DHT22;10963;50.934;4.668;2023-02-15T04:39:16;3.30;99.90
21602;DHT22;10963;50.934;4.668;2023-02-15T04:41:42;3.40;99.90
21602;DHT22;10963;50.934;4.668;2023-02-15T04:44:09;3.40;99.90
21602;DHT22;10963;50.934;4.668;2023-02-15T04:46:39;3.40;99.90
21602;DHT22;10963;50.934;4.668;2023-02-15T04:49:05;3.40;99.90
21602;DHT22;10963;50.934;4.668;2023-02-15T04:51:31;3.40;99.90
21602;DHT22;10963;50.934;4.668;2023-02-15T04:53:56;3.40;99.90
21602;DHT22;10963;50.934;4.668;2023-02-15T04:56:22;3.40;99.90
21602;DHT22;10963;50.934;4.668;2023-02-15T04:58:50;3.40;99.90
21602;DHT22;10963;50.934;4.668;2023-02-15T05:01:18;3.50;99.90
21602;DHT22;10963;50.934;4.668;2023-02-15T05:03:51;3.50;99.90
21602;DHT22;10963;50.934;4.668;2023-02-15T05:06:17;3.60;99.90
21602;DHT22;10963;50.934;4.668;2023-02-15T05:08:42;3.60;99.90
21602;DHT22;10963;50.934;4.668;2023-02-15T05:11:10;3.50;99.90
21602;DHT22;10963;50.934;4.668;2023-02-15T05:13:38;3.50;99.90
21602;DHT22;10963;50.934;4.668;2023-02-15T05:16:04;3.50;99.90
21602;DHT22;10963;50.934;4.668;2023-02-15T05:18:30;3.50;99.90
21602;DHT22;10963;50.934;4.668;2023-02-15T05:20:57;3.50;99.90
21602;DHT22;10963;50.934;4.668;2023-02-15T05:23:23;3.60;99.90
21602;DHT22;10963;50.934;4.668;2023-02-15T05:25:52;3.60;99.90
21602;DHT22;10963;50.934;4.668;2023-02-15T05:28:39;3.50;99.90
21602;DHT22;10963;50.934;4.668;2023-02-15T05:31:07;3.60;99.90
21602;DHT22;10963;50.934;4.668;2023-02-15T05:33:35;3.40;99.90
21602;DHT22;10963;50.934;4.668;2023-02-15T05:36:01;3.40;99.90
21602;DHT22;10963;50.934;4.668;2023-02-15T05:38:27;3.30;99.90
21602;DHT22;10963;50.934;4.668;2023-02-15T05:40:56;3.40;99.90
21602;DHT22;10963;50.934;4.668;2023-02-15T05:43:24;3.50;99.90
21602;DHT22;10963;50.934;4.668;2023-02-15T05:45:54;3.60;99.90
21602;DHT22;10963;50.934;4.668;2023-02-15T05:48:25;3.50;99.90
21602;DHT22;10963;50.934;4.668;2023-02-15T05:53:29;3.30;99.90
21602;DHT22;10963;50.934;4.668;2023-02-15T05:55:55;3.20;99.90
21602;DHT22;10963;50.934;4.668;2023-02-15T05:58:29;3.20;99.90
21602;DHT22;10963;50.934;4.668;2023-02-15T06:00:55;3.10;99.90
21602;DHT22;10963;50.934;4.668;2023-02-15T06:03:26;3.10;99.90
21602;DHT22;10963;50.934;4.668;2023-02-15T06:05:53;3.10;99.90
21602;DHT22;10963;50.934;4.668;2023-02-15T06:08:19;3.00;99.90
21602;DHT22;10963;50.934;4.668;2023-02-15T06:10:46;3.00;99.90
21602;DHT22;10963;50.934;4.668;2023-02-15T06:13:14;3.10;99.90
21602;DHT22;10963;50.934;4.668;2023-02-15T06:15:44;3.10;99.90
21602;DHT22;10963;50.934;4.668;2023-02-15T06:18:12;3.00;99.90
21602;DHT22;10963;50.934;4.668;2023-02-15T06:20:40;3.00;99.90
21602;DHT22;10963;50.934;4.668;2023-02-15T06:23:06;3.00;99.90
21602;DHT22;10963;50.934;4.668;2023-02-15T06:25:34;2.90;99.90
21602;DHT22;10963;50.934;4.668;2023-02-15T06:28:02;2.90;99.90
21602;DHT22;10963;50.934;4.668;2023-02-15T06:30:30;3.00;99.90
21602;DHT22;10963;50.934;4.668;2023-02-15T06:32:56;3.00;99.90
21602;DHT22;10963;50.934;4.668;2023-02-15T06:35:21;2.80;99.90
21602;DHT22;10963;50.934;4.668;2023-02-15T06:37:47;2.70;99.90
21602;DHT22;10963;50.934;4.668;2023-02-15T06:40:16;2.70;99.90
21602;DHT22;10963;50.934;4.668;2023-02-15T06:42:42;2.70;99.90
21602;DHT22;10963;50.934;4.668;2023-02-15T06:45:11;2.70;99.90
21602;DHT22;10963;50.934;4.668;2023-02-15T06:47:37;2.70;99.90
21602;DHT22;10963;50.934;4.668;2023-02-15T06:50:08;2.70;99.90
21602;DHT22;10963;50.934;4.668;2023-02-15T06:52:36;2.70;99.90
21602;DHT22;10963;50.934;4.668;2023-02-15T06:55:05;2.70;99.90
21602;DHT22;10963;50.934;4.668;2023-02-15T06:57:35;2.80;99.90
21602;DHT22;10963;50.934;4.668;2023-02-15T07:00:04;2.80;99.90
21602;DHT22;10963;50.934;4.668;2023-02-15T07:02:31;2.90;99.90
21602;DHT22;10963;50.934;4.668;2023-02-15T07:04:59;2.90;99.90
21602;DHT22;10963;50.934;4.668;2023-02-15T07:07:25;2.90;99.90
21602;DHT22;10963;50.934;4.668;2023-02-15T07:09:53;3.00;99.90
21602;DHT22;10963;50.934;4.668;2023-02-15T07:12:21;3.00;99.90
21602;DHT22;10963;50.934;4.668;2023-02-15T07:15:05;3.00;99.90
21602;DHT22;10963;50.934;4.668;2023-02-15T07:17:32;3.00;99.90
21602;DHT22;10963;50.934;4.668;2023-02-15T07:19:57;3.00;99.90
21602;DHT22;10963;50.934;4.668;2023-02-15T07:22:25;3.10;99.90
21602;DHT22;10963;50.934;4.668;2023-02-15T07:24:53;3.10;99.90
21602;DHT22;10963;50.934;4.668;2023-02-15T07:27:20;3.10;99.90
21602;DHT22;10963;50.934;4.668;2023-02-15T07:29:49;3.10;99.90
21602;DHT22;10963;50.934;4.668;2023-02-15T07:32:17;3.10;99.90
21602;DHT22;10963;50.934;4.668;2023-02-15T07:34:47;3.10;99.90
21602;DHT22;10963;50.934;4.668;2023-02-15T07:37:12;3.20;99.90
21602;DHT22;10963;50.934;4.668;2023-02-15T07:39:38;3.30;99.90
21602;DHT22;10963;50.934;4.668;2023-02-15T07:42:06;3.30;99.90
21602;DHT22;10963;50.934;4.668;2023-02-15T07:44:32;3.40;99.90
21602;DHT22;10963;50.934;4.668;2023-02-15T07:47:00;3.40;99.90
21602;DHT22;10963;50.934;4.668;2023-02-15T07:49:26;3.50;99.90
21602;DHT22;10963;50.934;4.668;2023-02-15T07:51:56;3.60;99.90
21602;DHT22;10963;50.934;4.668;2023-02-15T07:54:24;3.60;99.90
21602;DHT22;10963;50.934;4.668;2023-02-15T07:56:50;3.70;99.90
21602;DHT22;10963;50.934;4.668;2023-02-15T07:59:18;3.70;99.90
21602;DHT22;10963;50.934;4.668;2023-02-15T08:01:46;3.70;99.90
21602;DHT22;10963;50.934;4.668;2023-02-15T08:04:13;3.70;99.90
21602;DHT22;10963;50.934;4.668;2023-02-15T08:06:39;3.70;99.90
21602;DHT22;10963;50.934;4.668;2023-02-15T08:09:11;3.90;99.90
21602;DHT22;10963;50.934;4.668;2023-02-15T08:11:37;4.00;99.90
21602;DHT22;10963;50.934;4.668;2023-02-15T08:16:42;4.20;99.90
21602;DHT22;10963;50.934;4.668;2023-02-15T08:19:17;4.20;99.90
21602;DHT22;10963;50.934;4.668;2023-02-15T08:21:57;4.20;99.90
21602;DHT22;10963;50.934;4.668;2023-02-15T08:24:27;4.20;99.90
21602;DHT22;10963;50.934;4.668;2023-02-15T08:26:56;4.20;99.90
21602;DHT22;10963;50.934;4.668;2023-02-15T08:29:24;4.30;99.90
21602;DHT22;10963;50.934;4.668;2023-02-15T08:31:55;4.40;99.90
21602;DHT22;10963;50.934;4.668;2023-02-15T08:34:27;4.50;99.90
21602;DHT22;10963;50.934;4.668;2023-02-15T08:36:55;4.60;99.90
21602;DHT22;10963;50.934;4.668;2023-02-15T08:39:23;4.80;99.90
21602;DHT22;10963;50.934;4.668;2023-02-15T08:41:51;4.90;99.90
21602;DHT22;10963;50.934;4.668;2023-02-15T08:44:19;4.90;99.90
21602;DHT22;10963;50.934;4.668;2023-02-15T08:46:47;5.00;99.90
21602;DHT22;10963;50.934;4.668;2023-02-15T08:49:19;5.10;99.90
21602;DHT22;10963;50.934;4.668;2023-02-15T08:51:45;5.20;99.90
21602;DHT22;10963;50.934;4.668;2023-02-15T08:54:17;5.30;99.90
21602;DHT22;10963;50.934;4.668;2023-02-15T08:56:44;5.50;99.90
21602;DHT22;10963;50.934;4.668;2023-02-15T08:59:21;5.60;99.90
21602;DHT22;10963;50.934;4.668;2023-02-15T09:01:48;5.70;99.90
21602;DHT22;10963;50.934;4.668;2023-02-15T09:04:20;5.80;99.90
21602;DHT22;10963;50.934;4.668;2023-02-15T09:06:50;6.00;99.90
21602;DHT22;10963;50.934;4.668;2023-02-15T09:09:17;6.20;99.90
21602;DHT22;10963;50.934;4.668;2023-02-15T09:11:44;6.40;99.90
21602;DHT22;10963;50.934;4.668;2023-02-15T09:14:15;6.50;99.90
21602;DHT22;10963;50.934;4.668;2023-02-15T09:16:43;6.60;99.90
21602;DHT22;10963;50.934;4.668;2023-02-15T09:19:16;6.70;99.90
21602;DHT22;10963;50.934;4.668;2023-02-15T09:21:45;7.00;99.90
21602;DHT22;10963;50.934;4.668;2023-02-15T09:24:15;7.10;99.90
21602;DHT22;10963;50.934;4.668;2023-02-15T09:26:46;7.20;99.90
21602;DHT22;10963;50.934;4.668;2023-02-15T09:29:18;7.40;99.90
21602;DHT22;10963;50.934;4.668;2023-02-15T09:31:49;7.50;99.90
21602;DHT22;10963;50.934;4.668;2023-02-15T09:34:18;7.60;99.90
21602;DHT22;10963;50.934;4.668;2023-02-15T09:36:44;7.80;99.90
21602;DHT22;10963;50.934;4.668;2023-02-15T09:39:14;8.00;99.90
21602;DHT22;10963;50.934;4.668;2023-02-15T09:52:42;8.50;99.90
21602;DHT22;10963;50.934;4.668;2023-02-15T10:08:38;9.30;99.90
21602;DHT22;10963;50.934;4.668;2023-02-15T10:27:50;9.80;99.90
21602;DHT22;10963;50.934;4.668;2023-02-15T10:30:21;10.00;99.90
21602;DHT22;10963;50.934;4.668;2023-02-15T10:33:02;10.10;99.90
21602;DHT22;10963;50.934;4.668;2023-02-15T10:35:41;10.30;99.90
21602;DHT22;10963;50.934;4.668;2023-02-15T10:38:23;10.50;99.90
21602;DHT22;10963;50.934;4.668;2023-02-15T11:06:28;10.90;99.90
21602;DHT22;10963;50.934;4.668;2023-02-15T11:09:03;11.10;99.90
21602;DHT22;10963;50.934;4.668;2023-02-15T11:11:37;11.20;99.90
21602;DHT22;10963;50.934;4.668;2023-02-15T11:17:09;11.50;99.90
21602;DHT22;10963;50.934;4.668;2023-02-15T11:19:39;11.50;99.90
21602;DHT22;10963;50.934;4.668;2023-02-15T11:22:09;11.60;99.90
21602;DHT22;10963;50.934;4.668;2023-02-15T11:24:44;11.70;99.90
21602;DHT22;10963;50.934;4.668;2023-02-15T11:30:05;12.10;99.90
21602;DHT22;10963;50.934;4.668;2023-02-15T11:32:40;12.20;99.90
21602;DHT22;10963;50.934;4.668;2023-02-15T11:43:02;12.30;99.90
21602;DHT22;10963;50.934;4.668;2023-02-15T11:45:33;12.20;99.90
21602;DHT22;10963;50.934;4.668;2023-02-15T11:48:14;12.50;99.90
21602;DHT22;10963;50.934;4.668;2023-02-15T11:50:45;12.30;99.90
21602;DHT22;10963;50.934;4.668;2023-02-15T11:53:19;12.40;99.90
21602;DHT22;10963;50.934;4.668;2023-02-15T11:55:53;12.40;99.90
21602;DHT22;10963;50.934;4.668;2023-02-15T12:03:53;12.80;99.90
21602;DHT22;10963;50.934;4.668;2023-02-15T12:06:25;13.10;99.90
21602;DHT22;10963;50.934;4.668;2023-02-15T12:09:45;13.30;99.90
21602;DHT22;10963;50.934;4.668;2023-02-15T12:11:44;13.20;99.90
21602;DHT22;10963;50.934;4.668;2023-02-15T12:14:12;13.40;99.90
21602;DHT22;10963;50.934;4.668;2023-02-15T12:19:31;13.50;99.90
21602;DHT22;10963;50.934;4.668;2023-02-15T12:22:02;13.60;99.90
21602;DHT22;10963;50.934;4.668;2023-02-15T12:24:44;13.50;99.90
21602;DHT22;10963;50.934;4.668;2023-02-15T12:29:44;13.60;99.90
21602;DHT22;10963;50.934;4.668;2023-02-15T12:32:33;13.70;99.90
21602;DHT22;10963;50.934;4.668;2023-02-15T12:35:08;13.40;99.90
21602;DHT22;10963;50.934;4.668;2023-02-15T12:37:38;13.10;99.90
21602;DHT22;10963;50.934;4.668;2023-02-15T12:42:57;13.00;99.90
21602;DHT22;10963;50.934;4.668;2023-02-15T12:50:46;13.30;99.90
21602;DHT22;10963;50.934;4.668;2023-02-15T12:56:00;13.60;99.90
21602;DHT22;10963;50.934;4.668;2023-02-15T12:58:30;13.80;99.90
21602;DHT22;10963;50.934;4.668;2023-02-15T13:01:09;13.90;99.90
21602;DHT22;10963;50.934;4.668;2023-02-15T13:06:23;13.60;99.90
21602;DHT22;10963;50.934;4.668;2023-02-15T13:08:53;13.50;99.90
21602;DHT22;10963;50.934;4.668;2023-02-15T13:11:30;13.80;99.90
21602;DHT22;10963;50.934;4.668;2023-02-15T13:14:18;14.00;99.90
21602;DHT22;10963;50.934;4.668;2023-02-15T13:16:47;13.90;99.90
21602;DHT22;10963;50.934;4.668;2023-02-15T13:21:48;13.90;99.90
21602;DHT22;10963;50.934;4.668;2023-02-15T13:24:28;14.00;99.90
21602;DHT22;10963;50.934;4.668;2023-02-15T13:26:56;14.10;99.90
21602;DHT22;10963;50.934;4.668;2023-02-15T13:29:27;14.00;99.90
21602;DHT22;10963;50.934;4.668;2023-02-15T13:31:55;14.00;99.90
21602;DHT22;10963;50.934;4.668;2023-02-15T13:34:33;13.80;99.90
21602;DHT22;10963;50.934;4.668;2023-02-15T13:37:20;13.70;99.90
21602;DHT22;10963;50.934;4.668;2023-02-15T13:54:07;13.60;99.90
21602;DHT22;10963;50.934;4.668;2023-02-15T13:59:37;14.20;99.90
21602;DHT22;10963;50.934;4.668;2023-02-15T14:13:12;14.00;99.90
21602;DHT22;10963;50.934;4.668;2023-02-15T14:15:47;14.10;99.90
21602;DHT22;10963;50.934;4.668;2023-02-15T14:18:24;14.40;99.90
21602;DHT22;10963;50.934;4.668;2023-02-15T14:26:26;14.00;99.90
21602;DHT22;10963;50.934;4.668;2023-02-15T14:31:45;14.10;99.90
21602;DHT22;10963;50.934;4.668;2023-02-15T14:36:50;14.20;99.90
21602;DHT22;10963;50.934;4.668;2023-02-15T14:39:47;14.20;99.90
21602;DHT22;10963;50.934;4.668;2023-02-15T14:43:08;14.10;99.90
21602;DHT22;10963;50.934;4.668;2023-02-15T14:45:54;14.10;99.90
21602;DHT22;10963;50.934;4.668;2023-02-15T14:51:07;14.20;99.90
21602;DHT22;10963;50.934;4.668;2023-02-15T14:53:35;14.30;99.90
21602;DHT22;10963;50.934;4.668;2023-02-15T14:58:37;14.30;99.90
21602;DHT22;10963;50.934;4.668;2023-02-15T15:01:08;14.20;99.90
21602;DHT22;10963;50.934;4.668;2023-02-15T15:03:35;14.20;99.90
21602;DHT22;10963;50.934;4.668;2023-02-15T15:06:04;14.10;99.90
21602;DHT22;10963;50.934;4.668;2023-02-15T15:08:37;14.10;99.90
21602;DHT22;10963;50.934;4.668;2023-02-15T15:13:58;14.00;99.90
21602;DHT22;10963;50.934;4.668;2023-02-15T15:19:10;14.00;99.90
21602;DHT22;10963;50.934;4.668;2023-02-15T15:27:42;13.90;99.90
21602;DHT22;10963;50.934;4.668;2023-02-15T15:49:18;13.70;99.90
21602;DHT22;10963;50.934;4.668;2023-02-15T15:51:47;13.80;99.90
21602;DHT22;10963;50.934;4.668;2023-02-15T15:54:21;13.90;99.90
21602;DHT22;10963;50.934;4.668;2023-02-15T15:56:53;13.90;99.90
21602;DHT22;10963;50.934;4.668;2023-02-15T15:59:31;13.80;99.90
21602;DHT22;10963;50.934;4.668;2023-02-15T16:02:04;13.80;99.90
21602;DHT22;10963;50.934;4.668;2023-02-15T16:04:32;13.80;99.90
21602;DHT22;10963;50.934;4.668;2023-02-15T16:09:41;13.70;99.90
21602;DHT22;10963;50.934;4.668;2023-02-15T16:12:19;13.70;99.90
21602;DHT22;10963;50.934;4.668;2023-02-15T16:14:50;13.70;99.90
21602;DHT22;10963;50.934;4.668;2023-02-15T16:19:52;13.50;99.90
21602;DHT22;10963;50.934;4.668;2023-02-15T16:22:24;13.50;99.90
21602;DHT22;10963;50.934;4.668;2023-02-15T16:27:46;13.30;99.90
21602;DHT22;10963;50.934;4.668;2023-02-15T16:30:27;13.10;99.90
21602;DHT22;10963;50.934;4.668;2023-02-15T16:33:14;13.00;99.90
21602;DHT22;10963;50.934;4.668;2023-02-15T16:35:56;12.80;99.90
21602;DHT22;10963;50.934;4.668;2023-02-15T16:41:17;12.40;99.90
21602;DHT22;10963;50.934;4.668;2023-02-15T16:43:47;12.30;99.90
21602;DHT22;10963;50.934;4.668;2023-02-15T16:46:24;12.20;99.90
21602;DHT22;10963;50.934;4.668;2023-02-15T16:48:53;12.10;99.90
21602;DHT22;10963;50.934;4.668;2023-02-15T16:51:27;12.00;99.90
21602;DHT22;10963;50.934;4.668;2023-02-15T16:53:54;11.80;99.90
21602;DHT22;10963;50.934;4.668;2023-02-15T16:56:27;11.60;99.90
21602;DHT22;10963;50.934;4.668;2023-02-15T16:58:56;11.50;99.90
21602;DHT22;10963;50.934;4.668;2023-02-15T17:01:27;11.40;99.90
21602;DHT22;10963;50.934;4.668;2023-02-15T17:04:34;11.30;99.90
21602;DHT22;10963;50.934;4.668;2023-02-15T17:07:18;11.20;99.90
21602;DHT22;10963;50.934;4.668;2023-02-15T17:12:48;11.30;99.90
21602;DHT22;10963;50.934;4.668;2023-02-15T17:18:22;11.20;99.90
21602;DHT22;10963;50.934;4.668;2023-02-15T17:20:51;11.10;99.90
21602;DHT22;10963;50.934;4.668;2023-02-15T17:23:41;11.00;99.90
21602;DHT22;10963;50.934;4.668;2023-02-15T17:28:56;10.70;99.90
21602;DHT22;10963;50.934;4.668;2023-02-15T17:31:25;10.60;99.90
21602;DHT22;10963;50.934;4.668;2023-02-15T17:33:56;10.60;99.90
21602;DHT22;10963;50.934;4.668;2023-02-15T17:36:26;10.50;99.90
21602;DHT22;10963;50.934;4.668;2023-02-15T17:41:30;10.40;99.90
21602;DHT22;10963;50.934;4.668;2023-02-15T17:43:56;10.40;99.90
21602;DHT22;10963;50.934;4.668;2023-02-15T17:46:23;10.50;99.90
21602;DHT22;10963;50.934;4.668;2023-02-15T17:48:53;10.40;99.90
21602;DHT22;10963;50.934;4.668;2023-02-15T17:51:21;10.30;99.90
21602;DHT22;10963;50.934;4.668;2023-02-15T17:53:47;10.30;99.90
21602;DHT22;10963;50.934;4.668;2023-02-15T17:56:32;10.30;99.90
21602;DHT22;10963;50.934;4.668;2023-02-15T17:58:58;10.30;99.90
21602;DHT22;10963;50.934;4.668;2023-02-15T18:01:24;10.20;99.90
21602;DHT22;10963;50.934;4.668;2023-02-15T18:04:13;10.20;99.90
21602;DHT22;10963;50.934;4.668;2023-02-15T18:06:58;10.30;99.90
21602;DHT22;10963;50.934;4.668;2023-02-15T18:09:45;10.20;99.90
21602;DHT22;10963;50.934;4.668;2023-02-15T18:12:34;10.10;99.90
21602;DHT22;10963;50.934;4.668;2023-02-15T18:15:07;10.10;99.90
21602;DHT22;10963;50.934;4.668;2023-02-15T18:20:03;10.10;99.90
21602;DHT22;10963;50.934;4.668;2023-02-15T18:22:30;10.10;99.90
21602;DHT22;10963;50.934;4.668;2023-02-15T18:24:58;10.00;99.90
21602;DHT22;10963;50.934;4.668;2023-02-15T18:27:26;10.00;99.90
21602;DHT22;10963;50.934;4.668;2023-02-15T18:29:54;10.00;99.90
21602;DHT22;10963;50.934;4.668;2023-02-15T18:32:32;10.00;99.90
21602;DHT22;10963;50.934;4.668;2023-02-15T18:35:02;9.90;99.90
21602;DHT22;10963;50.934;4.668;2023-02-15T18:37:30;9.90;99.90
21602;DHT22;10963;50.934;4.668;2023-02-15T18:40:03;9.90;99.90
21602;DHT22;10963;50.934;4.668;2023-02-15T18:42:29;9.90;99.90
21602;DHT22;10963;50.934;4.668;2023-02-15T18:44:58;9.90;99.90
21602;DHT22;10963;50.934;4.668;2023-02-15T18:47:27;9.90;99.90
21602;DHT22;10963;50.934;4.668;2023-02-15T18:49:53;9.80;99.90
21602;DHT22;10963;50.934;4.668;2023-02-15T18:52:24;9.80;99.90
21602;DHT22;10963;50.934;4.668;2023-02-15T18:54:56;9.80;99.90
21602;DHT22;10963;50.934;4.668;2023-02-15T18:57:22;9.70;99.90
21602;DHT22;10963;50.934;4.668;2023-02-15T18:59:48;9.60;99.90
21602;DHT22;10963;50.934;4.668;2023-02-15T19:02:16;9.60;99.90
21602;DHT22;10963;50.934;4.668;2023-02-15T19:04:43;9.60;99.90
21602;DHT22;10963;50.934;4.668;2023-02-15T19:07:26;9.70;99.90
21602;DHT22;10963;50.934;4.668;2023-02-15T19:09:59;9.70;99.90
21602;DHT22;10963;50.934;4.668;2023-02-15T19:12:27;9.60;99.90
21602;DHT22;10963;50.934;4.668;2023-02-15T19:14:55;9.70;99.90
21602;DHT22;10963;50.934;4.668;2023-02-15T19:17:22;9.70;99.90
21602;DHT22;10963;50.934;4.668;2023-02-15T19:19:50;9.80;99.90
21602;DHT22;10963;50.934;4.668;2023-02-15T19:22:18;9.90;99.90
21602;DHT22;10963;50.934;4.668;2023-02-15T19:24:46;9.80;99.90
21602;DHT22;10963;50.934;4.668;2023-02-15T19:29:52;9.80;99.90
21602;DHT22;10963;50.934;4.668;2023-02-15T19:32:22;9.70;99.90
21602;DHT22;10963;50.934;4.668;2023-02-15T19:34:50;9.70;99.90
21602;DHT22;10963;50.934;4.668;2023-02-15T19:37:27;9.60;99.90
21602;DHT22;10963;50.934;4.668;2023-02-15T19:39:55;9.60;99.90
21602;DHT22;10963;50.934;4.668;2023-02-15T19:42:22;9.50;99.90
21602;DHT22;10963;50.934;4.668;2023-02-15T19:44:48;9.50;99.90
21602;DHT22;10963;50.934;4.668;2023-02-15T19:47:17;9.40;99.90
21602;DHT22;10963;50.934;4.668;2023-02-15T19:49:46;9.50;99.90
21602;DHT22;10963;50.934;4.668;2023-02-15T19:52:20;9.50;99.90
21602;DHT22;10963;50.934;4.668;2023-02-15T19:54:51;9.60;99.90
21602;DHT22;10963;50.934;4.668;2023-02-15T19:57:17;9.50;99.90
21602;DHT22;10963;50.934;4.668;2023-02-15T19:59:46;9.40;99.90
21602;DHT22;10963;50.934;4.668;2023-02-15T20:02:17;9.40;99.90
21602;DHT22;10963;50.934;4.668;2023-02-15T20:04:46;9.30;99.90
21602;DHT22;10963;50.934;4.668;2023-02-15T20:07:23;9.40;99.90
21602;DHT22;10963;50.934;4.668;2023-02-15T20:09:50;9.40;99.90
21602;DHT22;10963;50.934;4.668;2023-02-15T20:12:25;9.30;99.90
21602;DHT22;10963;50.934;4.668;2023-02-15T20:14:55;9.30;99.90
21602;DHT22;10963;50.934;4.668;2023-02-15T20:17:21;9.40;99.90
21602;DHT22;10963;50.934;4.668;2023-02-15T20:19:49;9.30;99.90
21602;DHT22;10963;50.934;4.668;2023-02-15T20:22:25;9.20;99.90
21602;DHT22;10963;50.934;4.668;2023-02-15T20:24:53;9.00;99.90